createdAt,value
2017-12-19T00:01:05.309Z,15.40
2017-12-19T00:03:33.588Z,14.83
2017-12-19T00:06:01.140Z,12.33
2017-12-19T00:08:29.420Z,16.50
2017-12-19T00:10:56.929Z,16.40
2017-12-19T00:13:24.498Z,16.53
2017-12-19T00:15:51.996Z,17.77
2017-12-19T00:18:19.525Z,17.10
2017-12-19T00:20:47.039Z,16.60
2017-12-19T00:23:14.576Z,16.00
2017-12-19T00:25:42.096Z,16.80
2017-12-19T00:28:09.617Z,15.73
2017-12-19T00:30:37.145Z,15.60
2017-12-19T00:33:04.645Z,16.20
2017-12-19T00:35:32.179Z,17.07
2017-12-19T00:37:59.697Z,15.37
2017-12-19T00:40:27.993Z,16.20
2017-12-19T00:42:55.524Z,16.07
2017-12-19T00:45:23.067Z,17.60
2017-12-19T00:47:50.569Z,15.40
2017-12-19T00:50:18.084Z,15.13
2017-12-19T00:52:45.607Z,15.30
2017-12-19T00:55:13.117Z,16.57
2017-12-19T00:57:41.432Z,15.13
2017-12-19T01:00:08.942Z,16.00
2017-12-19T01:02:36.440Z,14.70
2017-12-19T01:05:03.971Z,16.50
2017-12-19T01:07:32.228Z,16.60
2017-12-19T01:09:59.817Z,14.53
2017-12-19T01:12:27.335Z,14.67
2017-12-19T01:14:54.832Z,16.27
2017-12-19T01:17:22.349Z,15.87
2017-12-19T01:19:49.851Z,15.80
2017-12-19T01:22:17.380Z,16.63
2017-12-19T01:24:45.657Z,15.70
2017-12-19T01:27:13.981Z,15.90
2017-12-19T01:29:41.475Z,16.60
2017-12-19T01:32:09.789Z,16.07
2017-12-19T01:34:37.310Z,14.20
2017-12-19T01:37:04.818Z,15.87
2017-12-19T01:39:32.372Z,16.17
2017-12-19T01:41:59.874Z,15.30
2017-12-19T01:44:27.386Z,15.90
2017-12-19T01:46:54.903Z,15.60
2017-12-19T01:49:22.395Z,17.47
2017-12-19T01:51:49.917Z,17.43
2017-12-19T01:54:18.192Z,16.93
2017-12-19T01:56:45.730Z,17.00
2017-12-19T01:59:13.230Z,16.60
2017-12-19T02:01:41.494Z,15.93
2017-12-19T02:04:09.795Z,18.27
2017-12-19T02:06:37.288Z,19.83
2017-12-19T02:09:04.832Z,17.80
2017-12-19T02:11:32.344Z,20.03
2017-12-19T02:14:00.617Z,19.20
2017-12-19T02:16:28.912Z,20.70
2017-12-19T02:18:56.427Z,20.30
2017-12-19T02:21:25.464Z,20.80
2017-12-19T02:23:52.968Z,18.13
2017-12-19T02:26:20.483Z,18.33
2017-12-19T02:28:47.972Z,20.07
2017-12-19T02:31:15.498Z,19.23
2017-12-19T02:33:43.030Z,18.60
2017-12-19T02:36:11.287Z,20.23
2017-12-19T02:38:38.800Z,19.67
2017-12-19T02:41:06.302Z,18.30
2017-12-19T02:43:33.821Z,19.23
2017-12-19T02:46:01.324Z,15.07
2017-12-19T02:48:29.636Z,18.20
2017-12-19T02:50:57.152Z,19.50
2017-12-19T02:53:24.673Z,17.17
2017-12-19T02:55:52.312Z,16.73
2017-12-19T02:58:19.808Z,18.63
2017-12-19T03:00:47.467Z,18.07
2017-12-19T03:03:15.017Z,16.13
2017-12-19T03:05:42.529Z,18.93
2017-12-19T03:08:10.782Z,18.33
2017-12-19T03:10:38.305Z,18.90
2017-12-19T03:13:06.747Z,16.93
2017-12-19T03:15:34.267Z,18.87
2017-12-19T03:18:01.764Z,18.00
2017-12-19T03:20:29.294Z,19.47
2017-12-19T03:22:56.824Z,18.37
2017-12-19T03:25:24.325Z,16.90
2017-12-19T03:27:52.622Z,19.43
2017-12-19T03:30:20.113Z,19.10
2017-12-19T03:32:47.641Z,18.30
2017-12-19T03:35:15.148Z,17.90
2017-12-19T03:37:42.643Z,20.10
2017-12-19T03:40:10.933Z,17.70
2017-12-19T03:42:38.487Z,18.30
2017-12-19T03:45:06.021Z,19.70
2017-12-19T03:47:34.285Z,19.73
2017-12-19T03:50:01.785Z,19.33
2017-12-19T03:52:30.106Z,21.30
2017-12-19T03:54:57.596Z,21.07
2017-12-19T03:57:25.899Z,19.73
2017-12-19T03:59:53.397Z,18.80
2017-12-19T04:02:20.917Z,20.30
2017-12-19T04:04:48.437Z,21.00
2017-12-19T04:07:16.771Z,19.10
2017-12-19T04:09:44.277Z,17.43
2017-12-19T04:12:12.576Z,19.13
2017-12-19T04:14:40.078Z,18.00
2017-12-19T04:17:07.575Z,16.27
2017-12-19T04:19:35.144Z,19.27
2017-12-19T04:22:02.659Z,19.83
2017-12-19T04:24:30.179Z,19.60
2017-12-19T04:26:57.671Z,17.83
2017-12-19T04:29:25.188Z,20.17
2017-12-19T04:31:52.685Z,22.43
2017-12-19T04:34:20.248Z,22.50
2017-12-19T04:36:48.558Z,22.10
2017-12-19T04:39:16.061Z,22.43
2017-12-19T04:41:43.588Z,20.77
2017-12-19T04:44:11.084Z,19.20
2017-12-19T04:46:38.610Z,20.67
2017-12-19T04:49:06.102Z,21.80
2017-12-19T04:51:34.360Z,23.40
2017-12-19T04:54:01.880Z,25.83
2017-12-19T04:56:29.387Z,19.27
2017-12-19T04:58:56.899Z,21.87
2017-12-19T05:01:24.435Z,22.20
2017-12-19T05:03:51.944Z,24.07
2017-12-19T05:06:19.467Z,24.83
2017-12-19T05:08:46.958Z,22.80
2017-12-19T05:11:14.489Z,22.70
2017-12-19T05:13:41.999Z,24.60
2017-12-19T05:16:09.523Z,22.30
2017-12-19T05:18:37.045Z,26.00
2017-12-19T05:21:04.539Z,25.47
2017-12-19T05:23:32.080Z,21.47
2017-12-19T05:25:59.568Z,23.60
2017-12-19T05:28:27.085Z,25.97
2017-12-19T05:30:54.584Z,20.97
2017-12-19T05:33:22.135Z,23.60
2017-12-19T05:35:49.640Z,25.43
2017-12-19T05:38:17.926Z,25.33
2017-12-19T05:40:45.500Z,19.80
2017-12-19T05:43:13.048Z,21.50
2017-12-19T05:45:40.546Z,22.70
2017-12-19T05:48:08.080Z,24.57
2017-12-19T05:50:35.583Z,21.80
2017-12-19T05:53:03.169Z,24.43
2017-12-19T05:55:30.661Z,22.30
2017-12-19T05:57:58.184Z,23.67
2017-12-19T06:00:25.680Z,22.57
2017-12-19T06:02:53.191Z,25.90
2017-12-19T06:05:21.452Z,26.63
2017-12-19T06:07:49.734Z,22.90
2017-12-19T06:10:18.028Z,24.47
2017-12-19T06:12:45.528Z,24.63
2017-12-19T06:15:13.044Z,24.00
2017-12-19T06:17:40.545Z,21.90
2017-12-19T06:20:08.068Z,22.83
2017-12-19T06:22:35.576Z,21.77
2017-12-19T06:25:03.169Z,23.10
2017-12-19T06:27:30.639Z,22.53
2017-12-19T06:29:58.140Z,26.23
2017-12-19T06:32:25.667Z,27.80
2017-12-19T06:34:53.225Z,23.37
2017-12-19T06:37:20.768Z,25.67
2017-12-19T06:39:48.361Z,26.50
2017-12-19T06:42:15.863Z,27.93
2017-12-19T06:44:44.151Z,24.53
2017-12-19T06:47:11.644Z,25.93
2017-12-19T06:49:39.164Z,25.13
2017-12-19T06:52:06.659Z,25.57
2017-12-19T06:54:34.202Z,22.37
2017-12-19T06:57:01.712Z,27.90
2017-12-19T06:59:29.227Z,25.10
2017-12-19T07:01:56.742Z,28.37
2017-12-19T07:04:25.004Z,24.80
2017-12-19T07:06:53.314Z,24.57
2017-12-19T07:09:20.833Z,28.17
2017-12-19T07:11:48.361Z,28.63
2017-12-19T07:14:15.890Z,27.70
2017-12-19T07:16:43.424Z,24.30
2017-12-19T07:19:11.688Z,27.43
2017-12-19T07:21:39.949Z,27.47
2017-12-19T07:24:07.484Z,22.47
2017-12-19T07:26:34.978Z,29.43
2017-12-19T07:29:03.267Z,26.70
2017-12-19T07:31:31.533Z,24.30
2017-12-19T07:33:59.824Z,23.00
2017-12-19T07:36:28.103Z,27.07
2017-12-19T07:38:55.624Z,25.47
2017-12-19T07:41:23.137Z,25.17
2017-12-19T07:43:50.679Z,25.53
2017-12-19T07:46:18.210Z,27.93
2017-12-19T07:48:46.480Z,27.30
2017-12-19T07:51:14.892Z,27.53
2017-12-19T07:53:42.411Z,28.97
2017-12-19T07:56:09.904Z,27.20
2017-12-19T07:58:37.412Z,28.77
2017-12-19T08:01:04.932Z,29.80
2017-12-19T08:03:32.457Z,27.23
2017-12-19T08:06:00.725Z,27.20
2017-12-19T08:08:28.240Z,24.97
2017-12-19T08:10:55.754Z,27.00
2017-12-19T08:13:24.032Z,27.57
2017-12-19T08:15:51.565Z,26.73
2017-12-19T08:18:19.070Z,29.40
2017-12-19T08:20:46.623Z,28.00
2017-12-19T08:23:14.117Z,27.90
2017-12-19T08:25:41.608Z,28.30
2017-12-19T08:28:09.918Z,26.00
2017-12-19T08:30:37.457Z,26.83
2017-12-19T08:33:04.972Z,28.67
2017-12-19T08:35:32.470Z,28.57
2017-12-19T08:37:59.988Z,28.20
2017-12-19T08:40:27.490Z,27.43
2017-12-19T08:42:55.020Z,27.23
2017-12-19T08:45:22.552Z,29.63
2017-12-19T08:47:50.970Z,28.77
2017-12-19T08:50:18.453Z,26.37
2017-12-19T08:52:45.962Z,28.73
2017-12-19T08:55:13.488Z,24.80
2017-12-19T08:57:41.016Z,28.40
2017-12-19T09:00:08.557Z,27.90
2017-12-19T09:02:36.820Z,28.27
2017-12-19T09:05:05.109Z,28.10
2017-12-19T09:07:33.372Z,27.80
2017-12-19T09:10:00.911Z,28.60
2017-12-19T09:12:28.441Z,27.27
2017-12-19T09:14:55.952Z,27.27
2017-12-19T09:17:24.272Z,26.73
2017-12-19T09:19:51.771Z,23.00
2017-12-19T09:22:19.287Z,28.17
2017-12-19T09:24:46.813Z,23.00
2017-12-19T09:27:14.323Z,25.90
2017-12-19T09:29:41.851Z,26.70
2017-12-19T09:32:09.363Z,28.50
2017-12-19T09:34:36.883Z,27.43
2017-12-19T09:37:04.416Z,24.23
2017-12-19T09:39:31.943Z,24.70
2017-12-19T09:42:00.224Z,23.07
2017-12-19T09:44:28.492Z,26.67
2017-12-19T09:46:56.800Z,23.20
2017-12-19T09:49:24.328Z,23.63
2017-12-19T09:51:52.613Z,20.47
2017-12-19T09:54:20.905Z,24.10
2017-12-19T09:56:48.396Z,23.97
2017-12-19T09:59:15.926Z,25.20
2017-12-19T10:01:43.432Z,23.00
2017-12-19T10:04:10.956Z,22.97
2017-12-19T10:06:38.472Z,24.00
2017-12-19T10:09:06.748Z,23.13
2017-12-19T10:11:35.044Z,26.73
2017-12-19T10:14:02.548Z,22.73
2017-12-19T10:16:30.055Z,28.47
2017-12-19T10:18:57.614Z,27.67
2017-12-19T10:21:25.126Z,26.30
2017-12-19T10:23:52.637Z,23.77
2017-12-19T10:26:20.135Z,24.50
2017-12-19T10:28:47.664Z,25.37
2017-12-19T10:31:15.159Z,24.20
2017-12-19T10:33:42.672Z,23.87
2017-12-19T10:36:10.193Z,25.77
2017-12-19T10:38:38.448Z,22.90
2017-12-19T10:41:05.972Z,21.03
2017-12-19T10:43:33.493Z,18.40
2017-12-19T10:46:01.784Z,22.80
2017-12-19T10:48:29.302Z,24.73
2017-12-19T10:50:56.824Z,22.10
2017-12-19T10:53:24.351Z,21.13
2017-12-19T10:55:51.864Z,20.77
2017-12-19T10:58:19.392Z,21.53
2017-12-19T11:00:46.970Z,22.23
2017-12-19T11:03:14.474Z,23.40
2017-12-19T11:05:42.760Z,20.27
2017-12-19T11:08:10.259Z,22.90
2017-12-19T11:10:37.762Z,18.23
2017-12-19T11:13:06.055Z,16.67
2017-12-19T11:15:33.581Z,17.97
2017-12-19T11:18:01.872Z,16.07
2017-12-19T11:20:30.191Z,19.57
2017-12-19T11:22:57.677Z,22.50
2017-12-19T11:25:25.218Z,24.73
2017-12-19T11:27:52.757Z,23.63
2017-12-19T11:30:20.265Z,25.70
2017-12-19T11:32:48.549Z,24.00
2017-12-19T11:35:16.838Z,25.40
2017-12-19T11:37:44.372Z,21.30
2017-12-19T11:40:12.701Z,21.97
2017-12-19T11:42:40.192Z,18.50
2017-12-19T11:45:07.750Z,19.93
2017-12-19T11:47:35.268Z,21.10
2017-12-19T11:50:02.814Z,24.77
2017-12-19T11:52:30.340Z,25.00
2017-12-19T11:54:58.612Z,23.57
2017-12-19T11:57:26.901Z,23.13
2017-12-19T11:59:54.421Z,21.57
2017-12-19T12:02:21.952Z,22.57
2017-12-19T12:04:49.452Z,23.40
2017-12-19T12:07:16.973Z,20.50
2017-12-19T12:09:44.502Z,22.87
2017-12-19T12:12:12.008Z,21.23
2017-12-19T12:14:39.524Z,20.33
2017-12-19T12:17:07.022Z,22.87
2017-12-19T12:19:34.541Z,25.03
2017-12-19T12:22:02.071Z,22.63
2017-12-19T12:24:30.349Z,22.57
2017-12-19T12:26:57.910Z,21.10
2017-12-19T12:29:25.432Z,22.60
2017-12-19T12:31:52.961Z,18.00
2017-12-19T12:34:20.488Z,18.23
2017-12-19T12:36:48.011Z,18.50
2017-12-19T12:39:16.308Z,23.20
2017-12-19T12:41:44.587Z,20.27
2017-12-19T12:44:12.854Z,21.33
2017-12-19T12:46:41.139Z,22.80
2017-12-19T12:49:09.397Z,21.40
2017-12-19T12:51:37.686Z,20.57
2017-12-19T12:54:05.960Z,20.37
2017-12-19T12:56:34.252Z,20.83
2017-12-19T12:59:01.768Z,22.43
2017-12-19T13:01:29.268Z,21.93
2017-12-19T13:03:56.819Z,21.17
2017-12-19T13:06:24.343Z,20.37
2017-12-19T13:08:51.880Z,19.73
2017-12-19T13:11:19.388Z,20.40
2017-12-19T13:13:47.685Z,19.67
2017-12-19T13:16:15.192Z,19.00
2017-12-19T13:18:42.717Z,19.87
2017-12-19T13:21:10.257Z,17.87
2017-12-19T13:23:37.814Z,17.70
2017-12-19T13:26:05.328Z,19.60
2017-12-19T13:28:32.825Z,20.97
2017-12-19T13:31:00.394Z,19.83
2017-12-19T13:33:27.936Z,21.27
2017-12-19T13:35:55.507Z,14.20
2017-12-19T13:38:23.012Z,15.50
2017-12-19T13:40:50.516Z,16.10
2017-12-19T13:43:18.046Z,16.43
2017-12-19T13:45:46.315Z,14.40
2017-12-19T13:48:13.876Z,12.70
2017-12-19T13:50:42.274Z,14.43
2017-12-19T13:53:09.780Z,15.93
2017-12-19T13:55:37.321Z,15.83
2017-12-19T13:58:04.868Z,13.17
2017-12-19T14:00:32.408Z,14.00
2017-12-19T14:02:59.916Z,15.20
2017-12-19T14:05:27.420Z,14.57
2017-12-19T14:07:54.952Z,17.20
2017-12-19T14:10:22.457Z,17.97
2017-12-19T14:12:49.996Z,18.30
2017-12-19T14:15:17.507Z,19.47
2017-12-19T14:17:45.012Z,17.97
2017-12-19T14:20:12.544Z,17.57
2017-12-19T14:22:40.824Z,18.17
2017-12-19T14:25:09.120Z,16.90
2017-12-19T14:27:36.626Z,17.70
2017-12-19T14:30:04.167Z,17.20
2017-12-19T14:32:31.669Z,16.93
2017-12-19T14:35:00.695Z,16.30
2017-12-19T14:37:28.232Z,17.57
2017-12-19T14:39:56.499Z,17.80
2017-12-19T14:42:24.803Z,16.50
2017-12-19T14:44:52.317Z,14.47
2017-12-19T14:47:19.827Z,19.87
2017-12-19T14:49:47.362Z,19.70
2017-12-19T14:52:15.627Z,19.40
2017-12-19T14:54:43.889Z,23.23
2017-12-19T14:57:11.416Z,21.47
2017-12-19T14:59:38.946Z,20.87
2017-12-19T15:02:06.456Z,21.03
2017-12-19T15:04:33.970Z,18.80
2017-12-19T15:07:01.492Z,20.50
2017-12-19T15:09:29.794Z,20.47
2017-12-19T15:11:57.318Z,18.97
2017-12-19T15:14:25.651Z,23.30
2017-12-19T15:16:53.288Z,20.33
2017-12-19T15:19:20.809Z,18.50
2017-12-19T15:21:49.086Z,22.40
2017-12-19T15:24:17.392Z,23.73
2017-12-19T15:26:44.895Z,24.57
2017-12-19T15:29:12.417Z,19.37
2017-12-19T15:31:39.952Z,23.27
2017-12-19T15:34:08.238Z,21.40
2017-12-19T15:36:35.769Z,21.20
2017-12-19T15:39:04.047Z,22.13
2017-12-19T15:41:32.381Z,20.60
2017-12-19T15:43:59.903Z,16.50
2017-12-19T15:46:27.438Z,18.73
2017-12-19T15:48:55.727Z,20.80
2017-12-19T15:51:24.003Z,18.77
2017-12-19T15:53:51.587Z,21.80
2017-12-19T15:56:19.836Z,18.63
2017-12-19T15:58:48.131Z,20.37
2017-12-19T16:01:15.676Z,19.10
2017-12-19T16:03:43.770Z,22.43
2017-12-19T16:06:11.260Z,21.30
2017-12-19T16:08:38.790Z,19.40
2017-12-19T16:11:06.284Z,21.60
2017-12-19T16:13:33.836Z,17.00
2017-12-19T16:16:01.361Z,17.30
2017-12-19T16:18:28.940Z,17.30
2017-12-19T16:20:56.497Z,16.30
2017-12-19T16:23:24.010Z,18.30
2017-12-19T16:25:51.535Z,16.53
2017-12-19T16:28:19.067Z,16.63
2017-12-19T16:30:46.645Z,14.00
2017-12-19T16:33:14.182Z,16.20
2017-12-19T16:35:41.708Z,12.37
2017-12-19T16:38:09.256Z,13.93
2017-12-19T16:40:36.778Z,12.77
2017-12-19T16:43:04.312Z,17.50
2017-12-19T16:45:31.847Z,16.20
2017-12-19T16:47:59.382Z,16.93
2017-12-19T16:50:26.896Z,17.87
2017-12-19T16:52:54.393Z,16.23
2017-12-19T16:55:21.933Z,18.63
2017-12-19T16:57:49.458Z,18.37
2017-12-19T17:00:17.130Z,19.90
2017-12-19T17:02:44.628Z,18.73
2017-12-19T17:05:12.948Z,21.23
2017-12-19T17:07:40.480Z,19.53
2017-12-19T17:10:08.004Z,19.23
2017-12-19T17:12:36.390Z,19.50
2017-12-19T17:15:04.670Z,20.47
2017-12-19T17:17:32.934Z,19.17
2017-12-19T17:20:01.240Z,19.90
2017-12-19T17:22:28.782Z,17.40
2017-12-19T17:24:56.300Z,21.10
2017-12-19T17:27:23.821Z,19.10
2017-12-19T17:29:51.382Z,19.80
2017-12-19T17:32:18.880Z,18.10
2017-12-19T17:34:46.428Z,22.80
2017-12-19T17:37:13.947Z,20.03
2017-12-19T17:39:41.457Z,23.43
2017-12-19T17:42:09.024Z,21.20
2017-12-19T17:44:36.543Z,21.20
2017-12-19T17:47:04.082Z,21.07
2017-12-19T17:49:31.609Z,23.70
2017-12-19T17:51:59.916Z,21.63
2017-12-19T17:54:27.426Z,23.37
2017-12-19T17:56:54.936Z,25.17
2017-12-19T17:59:22.504Z,28.20
2017-12-19T18:01:50.047Z,27.03
2017-12-19T18:04:17.555Z,24.73
2017-12-19T18:06:45.098Z,24.67
2017-12-19T18:09:12.618Z,23.93
2017-12-19T18:11:40.138Z,23.57
2017-12-19T18:14:07.670Z,23.30
2017-12-19T18:16:35.180Z,25.07
2017-12-19T18:19:02.703Z,24.33
2017-12-19T18:21:30.260Z,22.03
2017-12-19T18:23:57.809Z,21.37
2017-12-19T18:26:25.346Z,22.20
2017-12-19T18:28:52.880Z,20.70
2017-12-19T18:31:20.418Z,20.90
2017-12-19T18:33:48.813Z,16.83
2017-12-19T18:36:16.369Z,19.67
2017-12-19T18:38:43.903Z,18.80
2017-12-19T18:41:12.218Z,19.40
2017-12-19T18:43:39.722Z,19.00
2017-12-19T18:46:07.255Z,19.10
2017-12-19T18:48:34.781Z,20.50
2017-12-19T18:51:02.347Z,18.87
2017-12-19T18:53:29.974Z,18.00
2017-12-19T18:55:58.253Z,20.60
2017-12-19T18:58:26.540Z,18.40
2017-12-19T19:00:54.160Z,20.20
2017-12-19T19:03:21.720Z,19.40
2017-12-19T19:05:49.230Z,19.07
2017-12-19T19:08:16.729Z,16.43
2017-12-19T19:10:44.275Z,16.90
2017-12-19T19:13:12.013Z,17.87
2017-12-19T19:15:39.557Z,15.80
2017-12-19T19:18:07.088Z,12.90
2017-12-19T19:20:35.417Z,14.00
2017-12-19T19:23:02.932Z,16.47
2017-12-19T19:25:31.226Z,17.00
2017-12-19T19:27:58.808Z,18.67
2017-12-19T19:30:26.321Z,18.70
2017-12-19T19:32:54.623Z,17.83
2017-12-19T19:35:22.148Z,17.87
2017-12-19T19:37:50.472Z,18.37
2017-12-19T19:40:17.989Z,17.17
2017-12-19T19:42:46.272Z,18.13
2017-12-19T19:45:13.815Z,18.53
2017-12-19T19:47:42.092Z,17.50
2017-12-19T19:50:10.400Z,18.10
2017-12-19T19:52:37.894Z,18.77
2017-12-19T19:55:05.561Z,17.73
2017-12-19T19:57:33.080Z,18.90
2017-12-19T20:00:00.589Z,15.70
2017-12-19T20:02:28.149Z,14.50
2017-12-19T20:04:55.669Z,13.57
2017-12-19T20:07:23.227Z,15.27
2017-12-19T20:09:50.753Z,15.70
2017-12-19T20:12:18.312Z,15.40
2017-12-19T20:14:45.838Z,15.83
2017-12-19T20:17:13.441Z,13.90
2017-12-19T20:19:40.971Z,12.13
2017-12-19T20:22:09.262Z,13.47
2017-12-19T20:24:36.851Z,13.90
2017-12-19T20:27:04.395Z,14.37
2017-12-19T20:29:31.909Z,16.03
2017-12-19T20:31:59.472Z,17.23
2017-12-19T20:34:27.758Z,16.93
2017-12-19T20:36:55.357Z,16.80
2017-12-19T20:39:22.876Z,18.97
2017-12-19T20:41:51.205Z,17.93
2017-12-19T20:44:18.766Z,18.13
2017-12-19T20:46:46.321Z,18.60
2017-12-19T20:49:13.862Z,15.13
2017-12-19T20:51:41.397Z,16.97
2017-12-19T20:54:08.931Z,15.40
2017-12-19T20:56:36.471Z,16.60
2017-12-19T20:59:03.997Z,18.50
2017-12-19T21:01:31.535Z,19.27
2017-12-19T21:03:59.099Z,19.13
2017-12-19T21:06:26.612Z,19.33
2017-12-19T21:08:55.631Z,19.60
2017-12-19T21:11:23.955Z,16.77
2017-12-19T21:13:51.479Z,14.90
2017-12-19T21:16:19.130Z,16.93
2017-12-19T21:18:46.813Z,15.60
2017-12-19T21:21:14.362Z,17.50
2017-12-19T21:23:41.873Z,18.40
2017-12-19T21:26:09.495Z,17.97
2017-12-19T21:28:37.045Z,18.40
2017-12-19T21:31:04.646Z,15.87
2017-12-19T21:33:32.213Z,15.30
2017-12-19T21:35:59.732Z,16.30
2017-12-19T21:38:27.280Z,18.10
2017-12-19T21:40:54.804Z,17.53
2017-12-19T21:43:23.075Z,18.33
2017-12-19T21:45:51.397Z,21.10
2017-12-19T21:48:18.948Z,20.87
2017-12-19T21:50:46.509Z,21.50
2017-12-19T21:53:14.026Z,20.43
2017-12-19T21:55:42.385Z,16.33
2017-12-19T21:58:10.052Z,20.70
2017-12-19T22:00:37.628Z,17.80
2017-12-19T22:03:05.922Z,22.83
2017-12-19T22:05:33.435Z,17.97
2017-12-19T22:08:00.979Z,20.50
2017-12-19T22:10:28.492Z,18.77
2017-12-19T22:12:56.020Z,19.10
2017-12-19T22:15:23.566Z,18.30
2017-12-19T22:17:51.141Z,18.77
2017-12-19T22:20:19.420Z,16.73
2017-12-19T22:22:47.706Z,17.07
2017-12-19T22:25:16.222Z,18.33
2017-12-19T22:27:43.749Z,17.50
2017-12-19T22:30:11.271Z,17.93
2017-12-19T22:32:38.886Z,16.33
2017-12-19T22:35:06.396Z,18.30
2017-12-19T22:37:33.956Z,17.20
2017-12-19T22:40:01.601Z,19.80
2017-12-19T22:42:29.129Z,19.70
2017-12-19T22:44:56.652Z,20.63
2017-12-19T22:47:24.924Z,19.40
2017-12-19T22:49:53.215Z,23.10
2017-12-19T22:52:20.733Z,18.77
2017-12-19T22:54:48.257Z,20.20
2017-12-19T22:57:15.795Z,21.50
2017-12-19T22:59:43.308Z,18.07
2017-12-19T23:02:10.855Z,19.80
2017-12-19T23:04:38.378Z,21.00
2017-12-19T23:07:05.942Z,21.20
2017-12-19T23:09:33.466Z,23.93
2017-12-19T23:12:01.732Z,21.50
2017-12-19T23:14:30.003Z,24.20
2017-12-19T23:16:58.327Z,22.37
2017-12-19T23:19:25.877Z,23.90
2017-12-19T23:21:53.378Z,23.33
2017-12-19T23:24:20.896Z,21.30
2017-12-19T23:26:48.410Z,23.00
2017-12-19T23:29:16.707Z,22.73
2017-12-19T23:31:44.222Z,19.70
2017-12-19T23:34:11.732Z,20.80
2017-12-19T23:36:39.288Z,21.03
2017-12-19T23:39:06.800Z,21.50
2017-12-19T23:41:34.296Z,19.50
2017-12-19T23:44:01.841Z,21.57
2017-12-19T23:46:30.128Z,19.17
2017-12-19T23:48:57.673Z,21.77
2017-12-19T23:51:25.940Z,18.83
2017-12-19T23:53:53.461Z,19.07
2017-12-19T23:56:20.970Z,21.30
2017-12-19T23:58:49.267Z,17.80
